x

9442396 - La Push, Wa (lapw1) Weather Station

12:30 - Fri 24th Jun 2016 All times are PDT. -7 hours from GMT.

  • Wind
    6mph, 8mph gusts
  • Sea Temp 53°f
  • Aire Temp 56°f
  • Sea Pressure 1024.3mb
  • 9442396 - La Push, Wa
  • 9442396 - La Push, Wa

More Historic Weather Station data

Upgrade to MSW Pro to gain access to the past 30 days of data for over 8000 Wavebouys and Weather Stations around the globe.

Join Pro

Comparision Forecast

View Surf forecast
   
vie 06/24 12:30 6 8 mph 1024.3mb 53f 56f
12:24 6 8 mph 1024.2mb 53f 56f
12:18 7 8 mph 1024.1mb 54f 56f
12:12 7 9 mph 1024mb 54f 56f
12:06 6 8 mph 1023.9mb 54f 56f
12:00 7 8 mph 1023.9mb 55f 56f
11:36 6 7 mph 1023.7mb 57f 55f
11:30 6 8 mph 1023.6mb 57f 56f
11:24 6 8 mph 1023.6mb 57f 55f
11:18 6 7 mph 1023.5mb 57f 55f
11:12 6 8 mph 1023.4mb 57f 55f
11:06 6 8 mph 1023.4mb 58f 55f
11:00 6 7 mph 1023.3mb 58f 55f
10:36 6 8 mph 1023mb 58f 55f
10:30 7 8 mph 1023mb 58f 55f
10:24 5 6 mph 1022.9mb 58f 55f
10:18 3 6 mph 1022.8mb 58f 55f
10:12 5 6 mph 1022.8mb 58f 55f
10:06 6 7 mph 1022.8mb 58f 55f
10:00 5 6 mph 1022.7mb 58f 55f
9:36 5 6 mph 1022.4mb 58f 55f
9:30 6 8 mph 1022.4mb 58f 55f
9:24 6 8 mph 1022.3mb 58f 55f
9:18 6 8 mph 1022.3mb 58f 55f
9:12 6 8 mph 1022.2mb 58f 55f
9:06 7 8 mph 1022.2mb 58f 55f
9:00 6 9 mph 1022.1mb 58f 55f
8:36 7 8 mph 1021.9mb 58f 55f
8:30 6
mph
1021.9mb 58f 55f
8:24 5 6 mph 1021.8mb 58f 55f
8:18 3 6 mph 1021.7mb 58f 55f
8:12 5 7 mph 1021.7mb 58f 55f
8:06 6
mph
1021.6mb 58f 55f
8:00 5 7 mph 1021.5mb 58f 55f
7:36 5 6 mph 1021.3mb 57f 55f
7:30 5 7 mph 1021.2mb 56f 55f
7:24 6 8 mph 1021.2mb 56f 55f
7:18 7 8 mph 1021.1mb 56f 55f
7:12 7 8 mph 1021.1mb 55f 55f
7:06 7 9 mph 1021.1mb 54f 55f
7:00 7 8 mph 1021.1mb 53f 55f
6:36 8 9 mph 1020.9mb 52f 55f
6:30 7 9 mph 1020.9mb 52f 55f
6:24 7 9 mph 1020.8mb 52f 55f
6:18 7 9 mph 1020.7mb 52f 55f
6:12 6 8 mph 1020.6mb 52f 55f
6:06 6 9 mph 1020.5mb 52f 55f
6:00 7 9 mph 1020.5mb 52f 55f
5:36 8 10 mph 1020.4mb 52f 55f
5:30 9 11 mph 1020.4mb 52f 55f
5:24 9 10 mph 1020.3mb 52f 55f
5:18 9 11 mph 1020.3mb 52f 55f
5:12 8 11 mph 1020.2mb 52f 55f
5:06 9 13 mph 1020.2mb 52f 55f
5:00 10 14 mph 1020.2mb 52f 55f
4:36 9 11 mph 1020mb 53f 55f
4:30 8 11 mph 1020mb 52f 55f
4:24 7 8 mph 1020mb 53f 55f
4:18 8 10 mph 1020mb 53f 55f
4:12 9 13 mph 1019.9mb 53f 55f
4:06 6 8 mph 1019.8mb 53f 55f
4:00 7 9 mph 1019.7mb 53f 55f
3:36 7 11 mph 1019.7mb 53f 55f
3:30 8 10 mph 1019.7mb 53f 55f
3:24 8 11 mph 1019.7mb 53f 55f
3:18 8 10 mph 1019.8mb 52f 56f
3:12 6 8 mph 1019.7mb 52f 55f
3:06 6 7 mph 1019.7mb 52f 55f
3:00 6 10 mph 1019.7mb 52f 55f
2:36 8 10 mph 1019.6mb 53f 55f
2:30 7 9 mph 1019.6mb 53f 55f
2:24 5 9 mph 1019.5mb 53f 55f
2:18 8 10 mph 1019.5mb 53f 55f
2:12 9 11 mph 1019.5mb 53f 55f
2:06 8 10 mph 1019.5mb 53f 55f
2:00 7 9 mph 1019.5mb 53f 56f
1:36 6 8 mph 1019.5mb 53f 55f
1:30 6 10 mph 1019.6mb 52f 55f
1:24 8 11 mph 1019.6mb 52f 55f
1:18 9 15 mph 1019.6mb 53f 54f
1:12 9 13 mph 1019.6mb 53f 55f
1:06 7 10 mph 1019.6mb 53f 55f
1:00 8 11 mph 1019.6mb 52f 55f
12:36 11 16 mph 1019.7mb 52f 56f
12:30 6 7 mph 1019.6mb 52f 53f
12:24 1 2 mph 1019.6mb 52f 53f
12:18 1 2 mph 1019.6mb 52f 53f
12:12 1 3 mph 1019.6mb 52f 53f
12:06 3
mph
1019.6mb 52f 53f
12:00 3 5 mph 1019.7mb 52f 53f
jue 06/23 11:36 1 3 mph 1019.5mb 52f 53f
11:30 2 3 mph 1019.5mb 52f 53f
11:24 1 2 mph 1019.6mb 52f 53f
11:18 2 3 mph 1019.5mb 52f 53f
11:12 2 3 mph 1019.5mb 52f 53f
11:06 2 3 mph 1019.5mb 52f 54f
11:00 2 3 mph 1019.5mb 52f 54f
10:36 1 2 mph 1019.6mb 52f 54f
10:30  -  2 mph 1019.6mb 52f 55f
10:24  -  2 mph 1019.6mb 52f 55f
10:18 2
mph
1019.5mb 52f 55f
10:12  -  2 mph 1019.5mb 52f 55f
10:06  -  1 mph 1019.4mb 52f 55f
10:00 1 2 mph 1019.4mb 53f 55f
9:36 1 3 mph 1019.2mb 53f 57f
9:30 2 3 mph 1019.2mb 53f 57f
9:24 1 3 mph 1019.1mb 53f 57f
9:18 2 5 mph 1019.1mb 54f 57f
9:12 3 5 mph 1019.1mb 54f 57f
9:06 3 6 mph 1019.1mb 54f 57f
9:00 3 5 mph 1019.1mb 53f 57f
8:36 3 5 mph 1019.2mb 52f 58f
8:30 3 5 mph 1019.1mb 52f 58f
8:24 3 5 mph 1019.1mb 51f 58f
8:18 3 5 mph 1019.1mb 51f 58f
8:12 3 5 mph 1019.1mb 51f 58f
8:06 3 5 mph 1019.1mb 51f 58f
8:00 3 5 mph 1019.1mb 51f 58f
7:36  -  mph 1019.1mb 51f 58f
7:30  -  mph 1019mb 51f 58f
7:24  -  mph 1019mb 51f 58f
7:18  -  mph 1019mb 51f 58f
7:12  -  mph 1019mb 51f 57f
7:06  -  mph 1019mb 51f 57f
7:00  -  mph 1019mb 51f 57f
6:36 6 8 mph 1019mb 52f 57f
6:30 6 8 mph 1019mb 52f 57f
6:24 6 8 mph 1019mb 52f 57f
6:18 6 8 mph 1019mb 52f 57f
6:12 7 8 mph 1019mb 52f 58f
6:06 7 9 mph 1019mb 52f 58f
6:00 6 8 mph 1019mb 52f 57f
5:36 5 6 mph 1018.8mb 52f 57f
5:30 6 7 mph 1018.8mb 52f 57f
5:24 5 6 mph 1018.8mb 52f 57f
5:18 2 5 mph 1018.8mb 52f 57f
5:12 3 5 mph 1018.8mb 52f 57f
5:06 5 6 mph 1018.7mb 51f 57f
5:00 5 6 mph 1018.7mb 51f 57f
4:36 6 7 mph 1018.6mb 51f 57f
4:30 6 7 mph 1018.5mb 51f 57f
4:24 5 6 mph 1018.5mb 51f 57f
4:18 6 7 mph 1018.5mb 51f 57f
4:12 6 7 mph 1018.5mb 51f 57f
4:06 7 8 mph 1018.5mb 51f 57f
4:00 6 7 mph 1018.5mb 51f 57f
3:36 5 6 mph 1018.3mb 51f 57f
3:30 5
mph
1018.3mb 51f 57f
3:24 3 5 mph 1018.2mb 51f 57f
3:18 5
mph
1018.2mb 51f 57f
3:12 5
mph
1018.1mb 51f 57f
3:06 3 5 mph 1018mb 51f 56f
3:00 3 6 mph 1018mb 51f 56f
2:36 9 11 mph 1018.1mb 51f 57f
2:30 6 7 mph 1018mb 51f 57f
2:24 5 6 mph 1017.9mb 51f 58f
2:18 3 5 mph 1017.9mb 51f 57f
2:12 5 6 mph 1017.8mb 51f 57f
2:06 5 6 mph 1017.8mb 51f 57f
2:00 5 6 mph 1017.8mb 51f 57f
1:36 6 7 mph 1017.6mb 50f 57f
1:30 5 6 mph 1017.6mb 51f 57f
1:24 5 6 mph 1017.6mb 50f 57f
1:18 3 5 mph 1017.5mb 50f 57f
1:12 5 6 mph 1017.5mb 50f 57f
1:06 5 7 mph 1017.5mb 50f 57f
1:00 6
mph
1017.4mb 50f 57f
12:54 5 6 mph 1017.4mb 50f 57f
12:48 6 7 mph 1017.4mb 50f 57f
12:36 3 6 mph - 50f 56f
12:30 5 6 mph - 50f 57f
12:24 5 6 mph - 51f 56f
12:18 5 6 mph - 51f 56f
12:12 6 8 mph - 50f 56f
12:06 6 7 mph - 51f 57f
12:00 5 7 mph - 51f 57f
11:54 6 8 mph - 51f 56f
11:48 7 9 mph - 52f 56f
11:36 6 9 mph 1016.8mb 52f 56f
11:30 5 7 mph 1016.7mb 52f 56f
11:24 5 6 mph 1016.6mb 52f 56f
11:18 5 7 mph 1016.5mb 53f 56f
11:12 3 6 mph 1016.5mb 53f 56f
11:06 6 7 mph 1016.4mb 53f 56f
11:00 5 6 mph 1016.3mb 54f 56f
10:54 3 7 mph 1016.1mb 54f 56f
10:48 6 7 mph 1016.1mb 54f 56f
10:36 3 6 mph 1016mb 55f 56f
10:30 3 6 mph 1016mb 55f 56f
10:24 5 6 mph 1015.9mb 55f 56f
10:18 6 8 mph 1015.9mb 55f 56f
10:12 5 7 mph 1015.9mb 56f 55f
10:06 5 7 mph 1015.8mb 55f 55f
10:00 5 6 mph 1015.7mb 55f 55f
9:54 5 7 mph 1015.7mb 55f 55f
9:48 5 6 mph 1015.6mb 55f 55f
9:36 7 9 mph 1015.5mb 55f 55f
9:30 7 9 mph 1015.4mb 55f 55f
9:24 7 8 mph 1015.4mb 55f 55f
9:18 5 6 mph 1015.3mb 55f 55f
9:12 5 6 mph 1015.2mb 55f 55f
9:06 3 7 mph 1015.1mb 55f 55f
9:00 5 6 mph 1015.2mb 55f 56f
8:54 3 6 mph 1015.2mb 55f 55f
8:48 3 6 mph 1015.1mb 55f 55f
8:36 3 5 mph 1014.9mb 55f 55f
8:30 3 6 mph 1014.8mb 55f 55f
8:24 5 7 mph 1014.9mb 55f 55f
8:18 6 8 mph 1014.8mb 55f 55f
8:12 6 8 mph 1014.7mb 55f 55f
8:06 2 7 mph 1014.7mb 55f 56f
8:00 5 6 mph 1014.6mb 55f 55f
7:54 5 6 mph 1014.5mb 55f 56f
7:48 5 7 mph 1014.4mb 55f 56f
7:36 3 6 mph 1014.3mb 55f 55f
7:30 5 7 mph 1014.3mb 55f 55f
7:24 5 6 mph 1014.3mb 54f 55f
7:18 5 6 mph 1014.2mb 54f 55f
7:12 5 6 mph 1014.1mb 54f 55f
7:06 5 7 mph 1014mb 54f 55f
7:00 5 7 mph 1014mb 53f 55f
6:54 6 9 mph 1013.9mb 53f 55f
6:48 7 8 mph 1013.9mb 52f 55f
6:36 6 7 mph 1013.7mb 50f 55f
6:30 5 6 mph 1013.8mb 50f 55f
6:24 3 6 mph 1013.7mb 50f 55f
6:18 3 6 mph 1013.6mb 50f 55f
6:12 5 6 mph 1013.6mb 50f 55f
6:06 5 6 mph 1013.6mb 50f 55f
6:00 6 8 mph 1013.5mb 50f 55f
5:54 8 10 mph 1013.5mb 50f 55f
5:48 10 14 mph 1013.5mb 50f 55f
5:36 11 14 mph 1013.4mb 50f 55f
5:30 9 13 mph 1013.4mb 50f 55f
5:24 8 15 mph 1013.4mb 50f 56f
5:18 7 13 mph 1013.3mb 50f 56f
5:12 9 13 mph 1013.2mb 50f 56f
5:06 7 10 mph 1013.1mb 50f 55f
5:00 5 8 mph 1013mb 50f 56f
4:54 5 7 mph 1013mb 50f 56f
4:48 2 8 mph 1013mb 50f 56f
4:36 5 9 mph 1012.9mb 50f 56f
4:30 6 11 mph 1012.9mb 50f 56f
4:24 3 7 mph 1012.9mb 50f 56f
4:18 6 9 mph 1013mb 50f 56f
4:12 5 8 mph 1013mb 50f 56f
4:06 3 11 mph 1013mb 50f 56f
4:00 6 9 mph 1013mb 50f 56f
3:54 7 15 mph 1013mb 50f 55f
3:48 6 14 mph 1013mb 50f 55f
3:36 7 15 mph 1013.1mb 50f 55f
3:30 6 11 mph 1013.1mb 50f 55f
3:24 7 14 mph 1013.1mb 50f 55f
3:18 11 17 mph 1013.1mb 50f 55f
3:12 8 14 mph 1013.2mb 50f 55f
3:06 6 13 mph 1013.2mb 50f 55f
3:00 7 14 mph 1013.3mb 50f 55f
2:54 7 13 mph 1013.3mb 49f 55f
2:48 7 10 mph 1013.3mb 50f 55f
2:36 5 9 mph 1013.5mb 49f 55f
2:30 5 9 mph 1013.5mb 49f 55f
2:24 7 11 mph 1013.5mb 50f 55f
2:18 7 10 mph 1013.5mb 50f 55f
2:12 6 13 mph 1013.6mb 49f 55f
2:06 8 11 mph 1013.6mb 49f 55f
2:00 6 14 mph 1013.6mb 49f 55f
1:54 8 15 mph 1013.7mb 49f 55f
1:48 6 10 mph 1013.7mb 50f 55f
1:36 8 11 mph 1013.8mb 50f 55f
1:30 6 9 mph 1013.8mb 50f 55f
1:24 6 13 mph 1013.9mb 50f 55f
1:18 7 13 mph 1014mb 50f 55f
1:12 7 13 mph 1014mb 50f 55f
1:06 6 11 mph 1014.1mb 50f 55f
1:00 7 11 mph 1014.1mb 50f 54f
12:54 6 10 mph 1014.2mb 50f 54f
12:48 3 11 mph 1014.3mb 50f 54f
12:36 8 11 mph 1014.3mb 50f 54f
12:30 5 10 mph 1014.4mb 49f 54f
12:24 6 10 mph 1014.4mb 49f 54f
12:18 6 11 mph 1014.5mb 49f 54f
12:12 5 11 mph 1014.5mb 49f 54f
12:06 8 11 mph 1014.5mb 49f 54f
12:00 5 8 mph 1014.5mb 49f 54f
mié 06/22 11:54 5 8 mph 1014.6mb 49f 54f
11:48 5 13 mph 1014.7mb 49f 54f
11:36 3 9 mph 1014.7mb 49f 54f
11:30 5 8 mph 1014.8mb 49f 53f
11:24 3 7 mph 1014.8mb 49f 53f
11:18 3 6 mph 1014.9mb 49f 53f
11:12 3 7 mph 1014.9mb 49f 53f
11:06 3 6 mph 1014.9mb 49f 53f
11:00 3 6 mph 1014.9mb 49f 53f
10:54 3 6 mph 1014.9mb 49f 53f
10:48 2 6 mph 1014.9mb 49f 53f
10:36 3 6 mph 1015mb 49f 53f
10:30 3 6 mph 1015mb 50f 53f
10:24 3 5 mph 1015.1mb 49f 53f
10:18 3 6 mph 1015.2mb 50f 53f
10:12 5 6 mph 1015.2mb 50f 53f
10:06 3 5 mph 1015.2mb 50f 53f
10:00 3 5 mph 1015.2mb 50f 53f
9:54 2
mph
1015.3mb 50f 53f
9:48  -  3 mph 1015.3mb 50f 53f
9:36 2 5 mph 1015.2mb 50f 53f
9:30  -  2 mph 1015.3mb 50f 53f
9:24  -  3 mph 1015.3mb 50f 53f
9:18 1 5 mph 1015.2mb 50f 53f
9:12 1 7 mph 1015.3mb 50f 53f
9:06 2 5 mph 1015.3mb 50f 53f
9:00 3 5 mph 1015.4mb 50f 53f
8:54 2 3 mph 1015.5mb 50f 53f
8:48 2 3 mph 1015.6mb 51f 53f
8:36 2 3 mph 1015.7mb 50f 53f
8:30 2 3 mph 1015.8mb 50f 53f
8:24 2 5 mph 1015.8mb 50f 53f
8:18 2 5 mph 1015.8mb 50f 53f
8:12 3 5 mph 1016mb 50f 53f
8:06 2 5 mph 1016mb 50f 53f
8:00 2 6 mph 1016mb 50f 53f
7:54 3 5 mph 1016.1mb 50f 53f
7:48 3 6 mph 1016.1mb 50f 53f
7:36 2
mph
1016.2mb 50f 53f
7:30 1 6 mph 1016.3mb 49f 53f
7:24 2 3 mph 1016.4mb 49f 53f
7:18 2 3 mph 1016.5mb 49f 53f
7:12 2 3 mph 1016.6mb 49f 53f
7:06 2 3 mph 1016.7mb 49f 53f
7:00 2 3 mph 1016.7mb 49f 53f
6:54 1 5 mph 1016.9mb 49f 53f
6:48 2 3 mph 1016.9mb 49f 53f
6:36  -  mph 1017.2mb 49f 53f
6:30  -  mph 1017.2mb 49f 53f
6:24  -  mph 1017.3mb 49f 53f
6:18  -  mph 1017.4mb 49f 53f
6:12  -  mph 1017.4mb 49f 53f
6:06  -  mph 1017.4mb 49f 54f
6:00  -  mph 1017.4mb 49f 54f
5:54  -  mph 1017.4mb 49f 54f
5:48  -  mph 1017.5mb 49f 54f
5:36 2 5 mph 1017.6mb 49f 54f
5:30 3 5 mph 1017.6mb 49f 55f
5:24 1 2 mph 1017.6mb 49f 55f
5:18 2 3 mph 1017.7mb 49f 55f
5:12 1 3 mph 1017.7mb 49f 55f
5:06 2
mph
1017.8mb 49f 55f
5:00 2 3 mph 1017.9mb 49f 55f
4:54 2 5 mph 1018mb 49f 55f
4:48 3 7 mph 1018.1mb 49f 56f
4:36 6 7 mph 1018.3mb 49f 57f
4:30 6
mph
1018.4mb 49f 57f
4:24 5 6 mph 1018.4mb 49f 57f
4:18 3 7 mph 1018.4mb 49f 57f
4:12 6 7 mph 1018.4mb 49f 57f
4:06 5 6 mph 1018.4mb 49f 58f
4:00 5 6 mph 1018.4mb 49f 58f
3:54 3 6 mph 1018.4mb 49f 58f
3:48 5 6 mph 1018.4mb 49f 58f
3:36 2 5 mph 1018.5mb 49f 58f
3:30 2 3 mph 1018.6mb 49f 58f
3:24 2 3 mph 1018.7mb 49f 58f
3:18 2 6 mph 1018.7mb 49f 58f
3:12 5
mph
1018.8mb 49f 58f
3:06 3 5 mph 1018.8mb 49f 58f
3:00 3 5 mph 1018.9mb 49f 58f
2:54 2 6 mph 1019mb 49f 58f
2:48 2 5 mph 1019mb 49f 58f
2:36 5 7 mph 1019.1mb 49f 58f
2:30 3 5 mph 1019mb 49f 58f
2:24 3 5 mph 1019.2mb 49f 57f
2:18 2 5 mph 1019.3mb 49f 57f
2:12 3 5 mph 1019.4mb 49f 56f
2:06 3 6 mph 1019.5mb 49f 56f
2:00 7 9 mph 1019.6mb 49f 56f
1:54 8 9 mph 1019.6mb 50f 57f
1:48 7 9 mph 1019.6mb 50f 57f
1:36 7 9 mph 1019.5mb 49f 57f
1:30 6 11 mph 1019.5mb 48f 57f
1:24 8 13 mph 1019.5mb 49f 57f
1:18 9 10 mph 1019.5mb 48f 57f
1:12 9 11 mph 1019.5mb 48f 57f
1:06 9 10 mph 1019.4mb 48f 57f
1:00 9 10 mph 1019.3mb 47f 57f
12:54 8 9 mph 1019.3mb 47f 58f
12:48 7 9 mph 1019.3mb 48f 58f
12:36 8 9 mph 1019.3mb 48f 57f
12:30 7 8 mph 1019.4mb 48f 57f
12:24 7 8 mph 1019.5mb 48f 57f
12:18 7 8 mph 1019.6mb 48f 58f
12:12 6 7 mph 1019.5mb 48f 58f
12:06 6 8 mph 1019.5mb 48f 58f
12:00 6 7 mph 1019.5mb 48f 58f
11:54 7 8 mph 1019.6mb 48f 58f
11:48 6 9 mph 1019.5mb 48f 58f
11:36 7 9 mph 1019.6mb 48f 58f
11:30 7 8 mph 1019.6mb 49f 58f
11:24 7 8 mph 1019.5mb 49f 58f
11:18 8 9 mph 1019.5mb 49f 58f
11:12 7 9 mph 1019.5mb 49f 58f
11:06 6 7 mph 1019.6mb 49f 58f
11:00 6 7 mph 1019.4mb 49f 58f
10:54 6 7 mph 1019.6mb 50f 58f
10:48 6 7 mph 1019.7mb 50f 57f
10:36 6 7 mph 1019.8mb 51f 57f
10:30 6 8 mph 1019.7mb 52f 57f
10:24 6 7 mph 1019.8mb 53f 57f
10:18 6
mph
1019.8mb 54f 57f
10:12 3 5 mph 1019.8mb 55f 57f
10:06 3 5 mph 1019.9mb 55f 57f
10:00 3
mph
1019.9mb 55f 57f
9:54 2 3 mph 1019.8mb 55f 56f
9:48 2 3 mph 1019.8mb 56f 56f
9:36 2 3 mph 1019.9mb 56f 56f
9:30 2 3 mph 1019.8mb 56f 57f
9:24  -  2 mph 1019.8mb 56f 57f
9:18 1 3 mph 1019.8mb 56f 56f
9:12 3 5 mph 1019.8mb 56f 55f
9:06 3 5 mph 1019.8mb 56f 55f
9:00 3 5 mph 1019.9mb 56f 55f
8:54 2 5 mph 1019.9mb 56f 54f
8:48 3 6 mph 1019.9mb 56f 54f
8:36 5 6 mph 1019.8mb 57f 54f
8:30 3 5 mph 1020mb 57f 54f
8:24 2 3 mph 1020.1mb 57f 54f
8:18 2 3 mph 1020.2mb 56f 53f
8:12 3 5 mph 1020.1mb 57f 53f
8:06 1 2 mph 1020.2mb 56f 53f
8:00  -  6 mph 1020.1mb 56f 53f
7:54 5 7 mph 1020mb 56f 53f
7:48 6 7 mph 1019.9mb 56f 53f
7:36 6 7 mph 1019.9mb 57f 53f
7:30 6 7 mph 1019.9mb 56f 53f
7:24 6 7 mph 1019.9mb 56f 53f
7:18 5 8 mph 1019.9mb 57f 52f
7:12 6 8 mph 1019.8mb 57f 52f
7:06 5 7 mph 1019.8mb 57f 52f
7:00 5 8 mph 1019.9mb 57f 52f
6:54 7 8 mph 1019.9mb 56f 52f
6:48 7 8 mph 1020mb 56f 52f
6:36 6 8 mph 1020.2mb 55f 52f
6:30 5 8 mph 1020.2mb 54f 52f
6:24 5 6 mph 1020.3mb 54f 51f
6:18 3 5 mph 1020.4mb 53f 51f
6:12 5 6 mph 1020.3mb 52f 51f
6:06 5 6 mph 1020.4mb 50f 51f
6:00 6 7 mph 1020.3mb 49f 51f
5:54 6 7 mph 1020.3mb 49f 51f
5:48 5 7 mph 1020.3mb 49f 51f
5:36 6
mph
1020.3mb 49f 51f
5:30 5 7 mph 1020.3mb 49f 51f
5:24 6 7 mph 1020.4mb 49f 51f
5:18 5 7 mph 1020.5mb 49f 51f
5:12 5 7 mph 1020.4mb 49f 51f
5:06 6 7 mph 1020.4mb 49f 51f
5:00 5 7 mph 1020.4mb 49f 51f
4:54 6 8 mph 1020.4mb 49f 51f
4:48 6 7 mph 1020.5mb 49f 51f
4:36 6 7 mph 1020.6mb 49f 51f
4:30 6 7 mph 1020.5mb 49f 51f
4:24 5 7 mph 1020.6mb 49f 51f
4:18 6 7 mph 1020.6mb 49f 51f
4:12 5 6 mph 1020.6mb 49f 51f
4:06 6 7 mph 1020.6mb 49f 51f
4:00 5 7 mph 1020.8mb 49f 51f
3:54 6 8 mph 1020.8mb 49f 51f
3:48 6 8 mph 1020.8mb 49f 51f
3:36 6 7 mph 1021mb 49f 51f
3:30 5 6 mph 1021.1mb 49f 52f
3:24 5 6 mph 1021.1mb 49f 52f
3:18 5 6 mph 1021.1mb 49f 52f
3:12 5 6 mph 1021.1mb 49f 52f
3:06 5 6 mph 1021.1mb 49f 52f
3:00 5 6 mph 1021.1mb 49f 52f
2:54 6
mph
1021.2mb 49f 52f
2:48 6
mph
1021.1mb 49f 52f
2:36 5 6 mph 1021.2mb 49f 52f
2:30 3 6 mph 1021.2mb 49f 52f
2:24 6 7 mph 1021.2mb 49f 52f
2:18 6 7 mph 1021.3mb 49f 52f
2:12 6 7 mph 1021.3mb 49f 52f
2:06 5 6 mph 1021.3mb 49f 52f
2:00 5 6 mph 1021.3mb 49f 52f
1:54 5 6 mph 1021.4mb 49f 52f
1:48 5 6 mph 1021.4mb 49f 52f
1:36 5 6 mph 1021.6mb 49f 52f
1:30 3
mph
1021.6mb 49f 52f
1:24 3
mph
1021.6mb 49f 53f
1:18 2 3 mph 1021.7mb 49f 52f
1:12 2 3 mph 1021.8mb 49f 53f
1:06 3 5 mph 1021.7mb 49f 53f
1:00 2 3 mph 1021.9mb 49f 53f
12:54 2 3 mph 1021.9mb 49f 53f
12:48 2
mph
1022mb 49f 53f
12:36 3 5 mph 1022mb 49f 53f
12:30 2 3 mph 1022.1mb 49f 53f
12:24 3
mph
1022.1mb 48f 53f
12:18 2
mph
1022.3mb 48f 54f
12:12  -  2 mph 1022.4mb 48f 54f
12:06  -  3 mph 1022.4mb 48f 55f
12:00 1 2 mph 1022.5mb 48f 55f
mar 06/21 11:54 2
mph
1022.5mb 48f 54f
11:48 1 3 mph 1022.5mb 48f 55f
11:36 2 3 mph 1022.6mb 48f 54f
11:30 2 3 mph 1022.6mb 48f 54f
11:24 1 2 mph 1022.7mb 48f 55f
11:18 2
mph
1022.8mb 48f 55f
11:12 1 2 mph 1022.8mb 48f 55f
11:06  -  1 mph 1023mb 48f 55f
11:00 1 2 mph 1023mb 48f 55f
10:54 1
mph
1023.1mb 49f 55f
10:48  -  1 mph 1023.1mb 49f 56f
10:36 2
mph
1023.2mb 48f 56f
10:30 1 5 mph 1023.2mb 48f 56f
10:24 2 6 mph 1023.3mb 48f 56f
10:18 3 6 mph 1023.2mb 48f 56f
10:12 3 5 mph 1023.2mb 49f 56f
10:06 1 3 mph 1023.2mb 49f 56f
10:00 1 2 mph 1023.3mb 49f 56f
9:54 1 2 mph 1023.4mb 49f 56f
9:48 2
mph
1023.3mb 49f 56f
9:36 2 3 mph 1023.3mb 50f 56f
9:30 2 3 mph 1023.3mb 50f 56f
9:24 2 5 mph 1023.3mb 50f 57f
9:18  -  6 mph 1023.4mb 50f 56f
9:12 1 6 mph 1023.4mb 50f 56f
9:06 5 7 mph 1023.4mb 50f 56f
9:00 6 7 mph 1023.5mb 50f 56f
8:54 6 7 mph 1023.7mb 51f 56f
8:48 6 7 mph 1023.7mb 51f 56f
8:36 6 7 mph 1023.9mb 50f 56f
8:30 6 8 mph 1023.9mb 50f 56f
8:24 7 9 mph 1023.9mb 50f 56f
8:18 8 9 mph 1024mb 50f 56f
8:12 7 9 mph 1024mb 51f 56f
8:06 7 8 mph 1024mb 51f 57f
8:00 7 8 mph 1024.1mb 51f 57f
7:54 7 8 mph 1024.2mb 52f 57f
7:48 7 8 mph 1024.3mb 51f 57f
7:36 7 8 mph 1024.4mb 51f 56f
7:30 6 8 mph 1024.5mb 51f 56f
7:24 7 8 mph 1024.5mb 50f 57f
7:18 7 8 mph 1024.5mb 51f 57f
7:12 7 9 mph 1024.6mb 51f 57f
7:06 7 8 mph 1024.7mb 51f 57f
7:00 5 6 mph 1024.7mb 50f 57f
6:54 6 7 mph 1024.8mb 50f 57f
6:48 6 7 mph 1024.9mb 49f 57f
6:36 6 7 mph 1025mb 49f -
6:30 6
mph
1025mb 49f -
6:24 6
mph
1025mb 49f -
6:18 5 6 mph 1024.9mb 49f -
6:12 6
mph
1025mb 49f -
6:06 6 7 mph 1025.1mb 49f -
6:00 6
mph
1025.2mb 49f -
5:54 5 6 mph 1025.3mb 50f -
5:48 5 6 mph 1025.4mb 50f -
5:36 6
mph
1025.6mb 50f 57f
5:30 5 6 mph 1025.7mb 50f 57f
5:24 5 6 mph 1025.6mb 50f 57f
5:18 5 6 mph 1025.8mb 50f 57f
5:12 6
mph
1025.8mb 49f 57f
5:06 5 6 mph 1025.8mb 50f 57f
5:00 3 6 mph 1025.9mb 50f 57f
4:54 5 6 mph 1025.9mb 50f 57f
4:48 5 6 mph 1026.1mb 50f 57f
4:36 6 7 mph 1026.2mb 50f 57f
4:30 6 8 mph 1026.3mb 50f 57f
4:24 7 8 mph 1026.2mb 50f 57f
4:18 8 9 mph 1026.3mb 50f 57f
4:12 8 10 mph 1026.4mb 50f 57f
4:06 8 10 mph 1026.4mb 50f 57f
4:00 8 10 mph 1026.4mb 50f 56f
3:54 8 9 mph 1026.4mb 50f 56f
3:48 8 9 mph 1026.5mb 50f 56f
3:36 7 8 mph 1026.4mb 50f 56f
3:30 7
mph
1026.3mb 49f 57f
3:24 6 8 mph 1026.4mb 49f 57f
3:18 6 8 mph 1026.6mb 49f 57f
3:12 7 9 mph 1026.7mb 49f 57f
3:06 7 8 mph 1026.8mb 49f 57f
3:00 6 7 mph 1026.7mb 49f 57f
2:54 7 8 mph 1026.8mb 49f 57f
2:48 6 7 mph 1026.9mb 49f 57f
2:36 6 7 mph 1027mb 49f 56f
2:30 6 8 mph 1026.9mb 49f 56f
2:24 6 8 mph 1026.9mb 49f 56f
2:18 7 9 mph 1026.9mb 49f 57f
2:12 6
mph
1027mb 49f 57f
2:06 5 6 mph 1026.9mb 49f 56f
2:00 6 7 mph 1027.1mb 49f 57f
1:54 3 6 mph 1027.1mb 49f 56f
1:48 5 6 mph 1027.1mb 49f 56f
1:36 5 6 mph 1027.1mb 49f 56f
1:30 3 6 mph 1027.2mb 49f 56f
1:24 5 6 mph 1027.3mb 49f 56f
1:18 5 6 mph 1027.3mb 49f 56f
1:12 5 6 mph 1027.4mb 49f 56f
1:06 5 6 mph 1027.3mb 49f 56f
1:00 5 6 mph 1027.3mb 49f 56f
12:54 5 6 mph 1027.3mb 49f 56f
12:48 3 5 mph 1027.2mb 48f 56f
12:36 5 6 mph 1027.3mb 49f 56f
12:30 5 6 mph 1027.3mb 48f 56f
12:24 5 6 mph 1027.3mb 48f 56f
12:18 5 6 mph 1027.3mb 48f 56f
12:12 3 5 mph 1027.4mb 48f 56f
12:06 2 5 mph 1027.3mb 49f 56f
12:00 1 2 mph 1027.3mb 49f 56f
11:54 2 3 mph 1027.4mb 49f 55f
11:48 2 5 mph 1027.4mb 49f 55f
11:36 2
mph
1027.5mb 49f 55f
11:30 2
mph
1027.5mb 49f 55f
11:24 2 5 mph 1027.6mb 49f 55f
11:18 3 5 mph 1027.6mb 49f 55f
11:12 3 5 mph 1027.5mb 50f 55f
11:06 2 3 mph 1027.5mb 50f 55f
11:00 2 3 mph 1027.4mb 50f 55f
10:54 1 2 mph 1027.4mb 50f 56f
10:48 1 2 mph 1027.3mb 50f 55f
10:36  -  2 mph 1027.2mb 50f 55f
10:30  -  2 mph 1027.2mb 51f 56f
10:24  -  2 mph 1027.1mb 51f 55f
10:18 2 3 mph 1027.2mb 51f 55f
10:12  -  3 mph 1027.2mb 52f 55f
10:06  -  2 mph 1027.2mb 52f 55f
10:00 2
mph
1027.1mb 53f 55f
9:54  -  3 mph 1027.1mb 54f 55f
9:48 1 2 mph 1027.1mb 55f 55f
9:36  -  1 mph 1027mb 56f 54f
9:30 1 3 mph 1027mb 57f 54f
9:24 2 3 mph 1027mb 57f 55f
9:18  -  2 mph 1027mb 57f 55f
9:12 2
mph
1027mb 57f 54f
9:06 2
mph
1026.9mb 57f 54f
9:00 1 2 mph 1026.9mb 57f 54f
8:54 1 2 mph 1026.8mb 57f 55f
8:48  -  2 mph 1026.8mb 57f 55f
8:36 1 2 mph 1026.8mb 57f 54f
8:30 1 2 mph 1026.7mb 57f 54f
8:24 1 2 mph 1026.6mb 58f 54f
8:18 1 2 mph 1026.6mb 58f 54f
8:12  -  1 mph 1026.5mb 58f 54f
8:06  -  1 mph 1026.5mb 58f 54f
8:00  -  1 mph 1026.4mb 58f 54f
7:54 1
mph
1026.4mb 58f 54f
7:48 1 2 mph 1026.4mb 58f 54f
7:36  -  2 mph 1026.3mb 58f 54f
7:30 2
mph
1026.3mb 58f 54f
7:24 2
mph
1026.2mb 58f 54f
7:18 2 3 mph 1026.1mb 58f 54f
7:12 2 3 mph 1026.1mb 58f 54f
7:06 3 5 mph 1026.1mb 58f 54f
7:00 5 6 mph 1026mb 58f 54f
6:54 6 7 mph 1025.9mb 58f 54f
6:48 6
mph
1025.8mb 59f 54f
6:36 3 5 mph 1025.7mb 58f 54f
6:30 2 3 mph 1025.7mb 58f 54f
6:24 2
mph
1025.6mb 58f 54f
6:18 2
mph
1025.6mb 58f 54f
6:12 2 3 mph 1025.6mb 58f 54f
6:06 3
mph
1025.6mb 58f 54f
6:00 2 3 mph 1025.5mb 58f 54f
5:54 2 3 mph 1025.5mb 58f 54f
5:48 3 5 mph 1025.4mb 58f 54f
5:36 3 5 mph 1025.4mb 57f 54f
5:30 3 5 mph 1025.4mb 56f 54f
5:24 3 5 mph 1025.3mb 55f 54f
5:18 3 5 mph 1025.3mb 54f 54f
5:12 3 5 mph 1025.2mb 53f 54f
5:06 6 7 mph 1025.2mb 53f 54f
5:00 5 7 mph 1025.2mb 53f 55f
4:36 7 9 mph 1025.1mb 52f 55f
4:30 8 9 mph 1025mb 52f 55f
4:24 6 8 mph 1025.1mb 51f 55f
4:18 3 5 mph 1025mb 51f 55f
4:12 2 3 mph 1025mb 51f 55f
4:06 1 3 mph 1024.9mb 51f 55f
4:00 2 3 mph 1024.9mb 51f 55f
3:54 3 6 mph 1025mb 51f 55f
3:48 3 6 mph 1025mb 51f 55f
3:36 7 10 mph 1024.8mb 51f 56f
3:30 5 6 mph 1024.8mb 50f 56f
3:24 3 7 mph 1024.8mb 51f 56f
3:18 3 5 mph 1024.8mb 51f 56f
3:12 3 5 mph 1024.8mb 50f 56f
3:06 3 5 mph 1024.8mb 51f 56f
3:00 3 5 mph 1024.8mb 50f 55f
2:54 3 5 mph 1024.8mb 51f 55f
2:48 3
mph
1024.8mb 51f 55f
2:36 5 7 mph 1024.7mb 51f 55f
2:30 6 8 mph 1024.7mb 52f 56f
2:24 6 7 mph 1024.6mb 51f 56f
2:18 3 5 mph 1024.5mb 51f 56f
2:12 5 6 mph 1024.5mb 51f 56f
2:06 3 6 mph 1024.4mb 51f 56f
2:00 2 3 mph 1024.3mb 51f 56f
1:54 3 5 mph 1024.3mb 51f 56f
1:48 5 6 mph 1024.3mb 51f 56f
1:36 6 7 mph 1024.2mb 51f 56f
1:30 7 10 mph 1024.2mb 51f 56f
1:24 7 9 mph 1024.3mb 51f 56f
1:18 6 7 mph 1024.2mb 51f 56f
1:12 6 7 mph 1024.2mb 51f 56f
1:06 5 8 mph 1024.2mb 51f 56f
1:00 6 8 mph 1024.2mb 51f 56f
12:54 5 6 mph 1024.1mb 51f 56f
12:48 8 10 mph 1024.1mb 51f 56f
12:36 5 6 mph 1024mb 51f 56f
12:30 5 6 mph 1023.9mb 51f 56f
12:24 5 7 mph 1023.9mb 51f 56f
12:18 5 8 mph 1023.8mb 51f 56f
12:12 6 7 mph 1023.7mb 51f 56f
12:06 6 7 mph 1023.7mb 51f 56f
12:00 7 9 mph 1023.7mb 51f 56f
lun 06/20 11:54 6 9 mph 1023.7mb 51f 56f
11:48 7 9 mph 1023.7mb 51f 56f
11:36 8 9 mph 1023.8mb 51f 56f
11:30 7 9 mph 1023.7mb 51f 56f
11:24 9 11 mph 1023.8mb 51f 56f
11:18 10 11 mph 1023.8mb 51f 56f
11:12 10 13 mph 1023.8mb 51f 56f
11:06 9 13 mph 1023.7mb 51f 56f
11:00 10 14 mph 1023.8mb 51f 56f
10:54 9 11 mph 1023.8mb 51f 56f
10:48 9 10 mph 1023.9mb 51f 56f
10:36 8 11 mph 1023.9mb 51f 56f
10:30 9 10 mph 1024mb 51f 56f
10:24 8 10 mph 1024mb 51f 56f
10:18 9 13 mph 1024mb 51f 56f
10:12 9 13 mph 1023.9mb 51f 57f
10:06 6 8 mph 1023.8mb 52f 57f
10:00 6 7 mph 1023.7mb 52f 57f
9:54 5 6 mph 1023.7mb 52f 57f
9:48 5 6 mph 1023.7mb 52f 57f
9:36 2 6 mph 1023.6mb 52f 57f
9:30 3 5 mph 1023.6mb 52f 57f
9:24 3 5 mph 1023.5mb 53f 57f
9:18 3 5 mph 1023.5mb 53f 57f
9:12 3 5 mph 1023.4mb 53f 57f
9:06 3 6 mph 1023.4mb 53f 57f
9:00 5 6 mph 1023.4mb 53f 57f
8:54 2 3 mph 1023.4mb 53f 57f
8:48 2 5 mph 1023.4mb 53f 57f
8:36 3 6 mph 1023.5mb 53f 57f
8:30 3 5 mph 1023.5mb 53f 57f
8:24 3 5 mph 1023.5mb 53f 57f